createdAt,value
2023-02-05T00:00:56.424Z,19.22
2023-02-05T00:01:57.107Z,19.09
2023-02-05T00:02:57.741Z,19.11
2023-02-05T00:03:58.326Z,19.09
2023-02-05T00:04:58.931Z,19.11
2023-02-05T00:05:59.575Z,19.11
2023-02-05T00:07:00.176Z,19.09
2023-02-05T00:08:00.789Z,19.02
2023-02-05T00:09:01.385Z,19.00
2023-02-05T00:10:01.974Z,19.07
2023-02-05T00:11:03.432Z,19.00
2023-02-05T00:12:04.134Z,19.00
2023-02-05T00:13:05.700Z,19.02
2023-02-05T00:14:06.301Z,18.88
2023-02-05T00:15:06.896Z,18.93
2023-02-05T00:16:07.492Z,18.95
2023-02-05T00:17:08.137Z,18.84
2023-02-05T00:18:08.731Z,18.93
2023-02-05T00:19:09.328Z,18.86
2023-02-05T00:20:09.927Z,18.90
2023-02-05T00:21:10.520Z,18.84
2023-02-05T00:22:11.115Z,18.90
2023-02-05T00:23:11.709Z,18.88
2023-02-05T00:24:12.313Z,18.80
2023-02-05T00:25:12.955Z,18.78
2023-02-05T00:26:13.611Z,18.78
2023-02-05T00:27:14.288Z,18.81
2023-02-05T00:28:14.951Z,18.75
2023-02-05T00:29:15.561Z,18.73
2023-02-05T00:31:17.000Z,18.70
2023-02-05T00:32:18.474Z,18.70
2023-02-05T00:33:19.120Z,18.63
2023-02-05T00:34:19.895Z,18.71
2023-02-05T00:35:20.548Z,18.62
2023-02-05T00:36:21.208Z,18.63
2023-02-05T00:37:21.802Z,18.62
2023-02-05T00:38:22.428Z,18.59
2023-02-05T00:39:23.028Z,18.56
2023-02-05T00:40:23.666Z,18.65
2023-02-05T00:41:24.320Z,18.62
2023-02-05T00:42:24.902Z,18.63
2023-02-05T00:43:25.505Z,18.59
2023-02-05T00:44:26.114Z,18.60
2023-02-05T00:45:26.773Z,18.52
2023-02-05T00:46:27.454Z,18.47
2023-02-05T00:47:28.079Z,18.60
2023-02-05T00:48:28.706Z,18.52
2023-02-05T00:49:30.279Z,18.53
2023-02-05T00:50:30.927Z,18.56
2023-02-05T00:51:31.530Z,18.56
2023-02-05T00:52:32.160Z,18.53
2023-02-05T00:53:32.740Z,18.62
2023-02-05T00:54:33.342Z,18.56
2023-02-05T00:55:34.237Z,18.50
2023-02-05T00:56:34.714Z,18.56
2023-02-05T00:57:35.338Z,18.55
2023-02-05T00:58:36.000Z,18.56
2023-02-05T00:59:36.642Z,18.53
2023-02-05T01:00:38.296Z,18.52
2023-02-05T01:01:38.998Z,18.47
2023-02-05T01:02:39.619Z,18.47
2023-02-05T01:03:40.223Z,18.41
2023-02-05T01:04:40.818Z,18.43
2023-02-05T01:05:41.417Z,18.43
2023-02-05T01:07:57.470Z,18.38
2023-02-05T01:08:58.148Z,18.41
2023-02-05T01:09:58.806Z,18.41
2023-02-05T01:10:59.453Z,18.44
2023-02-05T01:12:00.152Z,18.40
2023-02-05T01:13:00.798Z,18.45
2023-02-05T01:14:01.462Z,18.35
2023-02-05T01:15:02.074Z,18.35
2023-02-05T01:16:02.727Z,18.43
2023-02-05T01:17:03.358Z,18.34
2023-02-05T01:18:04.009Z,18.37
2023-02-05T01:19:04.641Z,18.41
2023-02-05T01:20:06.224Z,18.31
2023-02-05T01:21:06.886Z,18.35
2023-02-05T01:22:07.552Z,18.29
2023-02-05T01:23:08.235Z,18.28
2023-02-05T01:24:09.089Z,18.31
2023-02-05T01:25:09.766Z,18.33
2023-02-05T01:26:10.433Z,18.25
2023-02-05T01:27:11.085Z,18.26
2023-02-05T01:29:29.264Z,18.25
2023-02-05T01:31:43.455Z,18.25
2023-02-05T01:32:44.717Z,18.19
2023-02-05T01:33:45.380Z,18.29
2023-02-05T01:34:46.506Z,18.20
2023-02-05T01:35:47.189Z,18.22
2023-02-05T01:36:48.902Z,18.26
2023-02-05T01:37:50.979Z,18.22
2023-02-05T01:41:23.076Z,18.25
2023-02-05T01:42:23.956Z,18.19
2023-02-05T01:43:25.484Z,18.16
2023-02-05T01:44:26.168Z,18.26
2023-02-05T01:46:42.582Z,18.15
2023-02-05T01:47:43.150Z,18.11
2023-02-05T01:48:44.026Z,18.13
2023-02-05T01:49:47.164Z,18.13
2023-02-05T01:50:48.883Z,18.15
2023-02-05T01:51:50.528Z,18.22
2023-02-05T01:52:52.221Z,18.20
2023-02-05T01:53:53.331Z,18.25
2023-02-05T01:54:55.948Z,18.10
2023-02-05T01:59:44.927Z,18.11
2023-02-05T02:00:45.784Z,18.16
2023-02-05T02:01:48.113Z,18.16
2023-02-05T02:02:51.377Z,18.15
2023-02-05T02:04:13.408Z,18.10
2023-02-05T02:05:14.024Z,18.08
2023-02-05T02:06:14.650Z,18.07
2023-02-05T02:07:15.273Z,18.05
2023-02-05T02:08:16.999Z,18.05
2023-02-05T02:09:17.709Z,18.13
2023-02-05T02:10:18.334Z,18.01
2023-02-05T02:11:18.961Z,17.97
2023-02-05T02:12:19.564Z,18.08
2023-02-05T02:13:20.158Z,18.01
2023-02-05T02:14:20.753Z,17.97
2023-02-05T02:15:21.353Z,17.95
2023-02-05T02:16:22.060Z,18.01
2023-02-05T02:17:22.694Z,18.00
2023-02-05T02:18:23.288Z,17.94
2023-02-05T02:19:23.880Z,17.95
2023-02-05T02:20:24.479Z,18.03
2023-02-05T02:21:25.084Z,17.98
2023-02-05T02:22:25.672Z,17.98
2023-02-05T02:23:26.273Z,17.95
2023-02-05T02:24:26.874Z,17.95
2023-02-05T02:25:27.479Z,18.03
2023-02-05T02:26:28.060Z,17.97
2023-02-05T02:27:28.655Z,18.03
2023-02-05T02:28:29.259Z,18.00
2023-02-05T02:29:29.928Z,18.00
2023-02-05T02:30:30.772Z,17.97
2023-02-05T02:31:31.412Z,17.97
2023-02-05T02:32:32.012Z,17.95
2023-02-05T02:33:32.610Z,18.00
2023-02-05T02:34:33.205Z,17.90
2023-02-05T02:35:34.120Z,17.98
2023-02-05T02:36:34.818Z,17.90
2023-02-05T02:37:35.480Z,17.92
2023-02-05T02:38:36.094Z,17.90
2023-02-05T02:39:36.681Z,17.89
2023-02-05T02:40:37.266Z,17.87
2023-02-05T02:41:37.877Z,17.85
2023-02-05T02:42:38.461Z,17.85
2023-02-05T02:43:39.915Z,17.83
2023-02-05T02:44:40.521Z,17.87
2023-02-05T02:45:41.110Z,17.82
2023-02-05T02:46:41.786Z,17.87
2023-02-05T02:47:42.372Z,17.90
2023-02-05T02:48:43.767Z,17.87
2023-02-05T02:49:44.360Z,17.89
2023-02-05T02:50:45.818Z,17.87
2023-02-05T02:51:46.412Z,17.83
2023-02-05T02:52:47.019Z,17.83
2023-02-05T02:53:47.623Z,17.86
2023-02-05T02:54:48.268Z,17.86
2023-02-05T02:55:49.668Z,17.85
2023-02-05T02:57:19.844Z,17.80
2023-02-05T02:58:20.496Z,17.83
2023-02-05T02:59:21.100Z,17.80
2023-02-05T03:00:21.708Z,17.87
2023-02-05T03:01:22.298Z,17.80
2023-02-05T03:02:22.890Z,17.78
2023-02-05T03:03:23.488Z,17.82
2023-02-05T03:04:24.404Z,17.85
2023-02-05T03:05:24.993Z,17.78
2023-02-05T03:06:25.642Z,17.82
2023-02-05T03:07:26.303Z,17.79
2023-02-05T03:08:26.967Z,17.80
2023-02-05T03:09:27.562Z,17.82
2023-02-05T03:10:28.204Z,17.78
2023-02-05T03:11:28.798Z,17.74
2023-02-05T03:12:29.391Z,17.71
2023-02-05T03:13:29.986Z,17.72
2023-02-05T03:14:30.590Z,17.78
2023-02-05T03:15:31.785Z,17.74
2023-02-05T03:16:32.605Z,17.72
2023-02-05T03:17:33.215Z,17.78
2023-02-05T03:18:33.815Z,17.76
2023-02-05T03:19:34.416Z,17.68
2023-02-05T03:20:35.008Z,17.78
2023-02-05T03:21:35.604Z,17.74
2023-02-05T03:22:36.203Z,17.74
2023-02-05T03:23:36.804Z,17.74
2023-02-05T03:24:37.396Z,17.78
2023-02-05T03:25:37.988Z,17.71
2023-02-05T03:26:38.585Z,17.79
2023-02-05T03:27:39.189Z,17.76
2023-02-05T03:28:39.789Z,17.65
2023-02-05T03:29:40.392Z,17.74
2023-02-05T03:30:41.016Z,17.71
2023-02-05T03:31:41.620Z,17.68
2023-02-05T03:32:42.271Z,17.68
2023-02-05T03:33:42.873Z,17.71
2023-02-05T03:34:43.482Z,17.72
2023-02-05T03:35:44.081Z,17.64
2023-02-05T03:36:44.667Z,17.67
2023-02-05T03:37:45.264Z,17.68
2023-02-05T03:38:45.865Z,17.76
2023-02-05T03:39:46.459Z,17.70
2023-02-05T03:40:47.062Z,17.67
2023-02-05T03:41:47.663Z,17.67
2023-02-05T03:43:20.302Z,17.64
2023-02-05T03:44:20.902Z,17.63
2023-02-05T03:45:21.603Z,17.67
2023-02-05T03:46:22.205Z,17.65
2023-02-05T03:47:22.798Z,17.67
2023-02-05T03:48:23.398Z,17.65
2023-02-05T03:49:24.001Z,17.68
2023-02-05T03:50:24.598Z,17.63
2023-02-05T03:51:25.198Z,17.65
2023-02-05T03:52:25.789Z,17.60
2023-02-05T03:53:26.384Z,17.63
2023-02-05T03:54:26.984Z,17.60
2023-02-05T03:55:27.730Z,17.64
2023-02-05T03:56:28.321Z,17.54
2023-02-05T03:57:28.927Z,17.57
2023-02-05T03:58:29.528Z,17.56
2023-02-05T03:59:30.123Z,17.63
2023-02-05T04:00:30.707Z,17.57
2023-02-05T04:01:31.349Z,17.56
2023-02-05T04:02:32.002Z,17.59
2023-02-05T04:03:32.687Z,17.63
2023-02-05T04:04:33.277Z,17.57
2023-02-05T04:05:34.260Z,17.64
2023-02-05T04:06:34.996Z,17.56
2023-02-05T04:07:48.280Z,17.59
2023-02-05T04:08:48.932Z,17.49
2023-02-05T04:09:49.537Z,17.57
2023-02-05T04:10:50.192Z,17.57
2023-02-05T04:11:50.787Z,17.56
2023-02-05T04:12:51.383Z,17.56
2023-02-05T04:13:52.049Z,17.56
2023-02-05T04:14:52.639Z,17.51
2023-02-05T04:15:53.305Z,17.54
2023-02-05T04:16:53.900Z,17.51
2023-02-05T04:17:54.492Z,17.52
2023-02-05T04:18:55.884Z,17.49
2023-02-05T04:19:56.478Z,17.54
2023-02-05T04:20:57.128Z,17.56
2023-02-05T04:21:57.732Z,17.59
2023-02-05T04:22:58.333Z,17.48
2023-02-05T04:23:58.955Z,17.45
2023-02-05T04:24:59.602Z,17.51
2023-02-05T04:26:00.194Z,17.46
2023-02-05T04:27:00.787Z,17.48
2023-02-05T04:28:01.445Z,17.44
2023-02-05T04:29:02.047Z,17.45
2023-02-05T04:30:02.752Z,17.48
2023-02-05T04:31:03.401Z,17.45
2023-02-05T04:32:03.990Z,17.44
2023-02-05T04:33:04.587Z,17.42
2023-02-05T04:34:05.188Z,17.45
2023-02-05T04:35:05.788Z,17.46
2023-02-05T04:36:06.393Z,17.48
2023-02-05T04:37:07.062Z,17.44
2023-02-05T04:38:08.448Z,17.45
2023-02-05T04:39:09.057Z,17.45
2023-02-05T04:40:09.644Z,17.46
2023-02-05T04:41:10.237Z,17.38
2023-02-05T04:42:10.876Z,17.45
2023-02-05T04:43:11.477Z,17.46
2023-02-05T04:44:12.068Z,17.42
2023-02-05T04:45:12.669Z,17.42
2023-02-05T04:46:13.455Z,17.38
2023-02-05T04:47:14.049Z,17.41
2023-02-05T04:48:14.646Z,17.34
2023-02-05T04:49:15.247Z,17.33
2023-02-05T04:50:15.844Z,17.41
2023-02-05T04:51:16.439Z,17.44
2023-02-05T04:52:17.041Z,17.41
2023-02-05T04:53:17.644Z,17.38
2023-02-05T04:54:18.313Z,17.44
2023-02-05T04:55:18.907Z,17.41
2023-02-05T04:56:19.501Z,17.41
2023-02-05T04:57:20.238Z,17.38
2023-02-05T04:58:20.832Z,17.42
2023-02-05T04:59:22.276Z,17.34
2023-02-05T05:00:22.879Z,17.36
2023-02-05T05:01:23.527Z,17.31
2023-02-05T05:02:24.185Z,17.34
2023-02-05T05:03:24.770Z,17.29
2023-02-05T05:04:25.367Z,17.44
2023-02-05T05:05:25.970Z,17.26
2023-02-05T05:06:26.562Z,17.29
2023-02-05T05:07:27.169Z,17.26
2023-02-05T05:08:27.763Z,17.29
2023-02-05T05:09:28.355Z,17.29
2023-02-05T05:10:29.801Z,17.41
2023-02-05T05:11:30.405Z,17.30
2023-02-05T05:12:31.003Z,17.33
2023-02-05T05:13:31.597Z,17.31
2023-02-05T05:14:33.117Z,17.31
2023-02-05T05:15:33.993Z,17.36
2023-02-05T05:16:34.385Z,17.34
2023-02-05T05:17:35.005Z,17.27
2023-02-05T05:18:35.669Z,17.33
2023-02-05T05:19:36.563Z,17.31
2023-02-05T05:20:37.240Z,17.31
2023-02-05T05:21:37.890Z,17.26
2023-02-05T05:23:54.174Z,17.24
2023-02-05T05:24:54.767Z,17.30
2023-02-05T05:25:55.375Z,17.27
2023-02-05T05:26:56.034Z,17.26
2023-02-05T05:27:56.753Z,17.30
2023-02-05T05:28:57.453Z,17.33
2023-02-05T05:30:26.669Z,17.29
2023-02-05T05:32:28.902Z,17.26
2023-02-05T05:33:29.527Z,17.33
2023-02-05T05:34:30.209Z,17.26
2023-02-05T05:37:48.875Z,17.16
2023-02-05T05:38:49.477Z,17.23
2023-02-05T05:39:50.167Z,17.26
2023-02-05T05:40:50.819Z,17.26
2023-02-05T05:41:51.412Z,17.31
2023-02-05T05:42:52.092Z,17.09
2023-02-05T05:43:53.339Z,17.22
2023-02-05T06:12:03.353Z,17.09
2023-02-05T06:13:03.990Z,17.14
2023-02-05T06:14:04.591Z,17.15
2023-02-05T06:15:05.206Z,17.19
2023-02-05T06:16:05.979Z,17.14
2023-02-05T06:17:07.462Z,17.08
2023-02-05T06:18:08.048Z,17.16
2023-02-05T06:19:08.632Z,17.14
2023-02-05T06:20:09.298Z,17.11
2023-02-05T06:21:09.897Z,17.15
2023-02-05T06:22:10.487Z,17.14
2023-02-05T06:23:11.141Z,17.06
2023-02-05T06:24:11.737Z,17.06
2023-02-05T06:25:12.336Z,17.08
2023-02-05T06:26:12.939Z,17.04
2023-02-05T06:27:13.532Z,17.11
2023-02-05T06:28:14.226Z,17.11
2023-02-05T06:29:14.882Z,17.09
2023-02-05T06:30:15.571Z,17.15
2023-02-05T06:31:16.372Z,17.11
2023-02-05T06:32:17.031Z,17.05
2023-02-05T06:33:17.669Z,17.05
2023-02-05T06:34:18.258Z,17.06
2023-02-05T06:35:18.849Z,17.08
2023-02-05T06:36:19.452Z,17.05
2023-02-05T06:37:20.045Z,17.06
2023-02-05T06:38:20.790Z,17.02
2023-02-05T06:39:22.355Z,17.04
2023-02-05T06:40:23.827Z,17.06
2023-02-05T06:41:24.442Z,17.02
2023-02-05T06:42:25.027Z,17.06
2023-02-05T06:43:25.618Z,17.02
2023-02-05T06:44:26.221Z,17.01
2023-02-05T06:45:26.813Z,17.05
2023-02-05T06:46:27.526Z,17.06
2023-02-05T06:47:28.076Z,17.06
2023-02-05T06:48:28.699Z,17.05
2023-02-05T06:49:29.555Z,17.08
2023-02-05T06:53:34.387Z,17.08
2023-02-05T06:54:34.979Z,17.05
2023-02-05T06:55:36.617Z,17.05
2023-02-05T06:56:37.427Z,16.97
2023-02-05T06:57:38.292Z,17.02
2023-02-05T06:58:38.955Z,16.93
2023-02-05T06:59:39.634Z,17.01
2023-02-05T07:00:40.899Z,16.99
2023-02-05T07:01:42.199Z,17.04
2023-02-05T07:02:42.858Z,16.97
2023-02-05T07:03:43.449Z,17.02
2023-02-05T07:04:44.044Z,16.96
2023-02-05T07:05:44.680Z,16.99
2023-02-05T07:06:45.299Z,16.94
2023-02-05T07:07:45.905Z,16.96
2023-02-05T07:08:46.494Z,16.97
2023-02-05T07:09:47.092Z,16.93
2023-02-05T07:10:47.685Z,16.99
2023-02-05T07:11:48.284Z,16.93
2023-02-05T07:12:48.877Z,16.99
2023-02-05T07:13:49.491Z,16.91
2023-02-05T07:14:50.089Z,16.96
2023-02-05T07:15:51.082Z,16.93
2023-02-05T07:16:51.689Z,16.96
2023-02-05T07:17:52.346Z,16.96
2023-02-05T07:20:08.415Z,16.93
2023-02-05T07:21:09.006Z,16.90
2023-02-05T07:22:09.609Z,16.87
2023-02-05T07:23:10.209Z,16.91
2023-02-05T07:24:10.878Z,16.90
2023-02-05T07:25:11.543Z,16.90
2023-02-05T07:26:12.183Z,16.93
2023-02-05T07:27:13.038Z,16.94
2023-02-05T07:28:13.804Z,16.89
2023-02-05T07:29:14.344Z,16.96
2023-02-05T07:30:14.944Z,16.91
2023-02-05T07:31:15.622Z,16.94
2023-02-05T07:32:16.280Z,16.99
2023-02-05T07:33:16.889Z,16.96
2023-02-05T07:34:17.528Z,16.99
2023-02-05T07:35:18.193Z,16.89
2023-02-05T07:36:18.810Z,16.93
2023-02-05T07:37:21.344Z,16.94
2023-02-05T07:38:21.037Z,16.93
2023-02-05T07:39:21.694Z,16.97
2023-02-05T07:40:22.335Z,16.89
2023-02-05T07:41:22.940Z,16.94
2023-02-05T07:42:23.581Z,16.99
2023-02-05T07:43:24.173Z,16.99
2023-02-05T07:44:24.780Z,16.99
2023-02-05T07:45:26.176Z,16.96
2023-02-05T07:46:26.791Z,16.96
2023-02-05T07:47:27.382Z,16.96
2023-02-05T07:48:27.972Z,17.01
2023-02-05T07:49:28.626Z,16.91
2023-02-05T07:50:29.216Z,16.99
2023-02-05T07:51:29.952Z,17.04
2023-02-05T07:52:30.551Z,17.01
2023-02-05T07:53:31.152Z,16.86
2023-02-05T07:54:31.759Z,16.93
2023-02-05T07:55:32.618Z,16.90
2023-02-05T07:56:33.430Z,16.87
2023-02-05T07:57:34.028Z,16.89
2023-02-05T07:58:34.622Z,16.91
2023-02-05T07:59:35.217Z,16.93
2023-02-05T08:00:35.809Z,16.86
2023-02-05T08:01:36.476Z,16.84
2023-02-05T08:02:37.080Z,16.93
2023-02-05T08:03:37.679Z,16.84
2023-02-05T08:04:38.288Z,16.91
2023-02-05T08:05:38.874Z,16.90
2023-02-05T08:06:39.479Z,16.87
2023-02-05T08:07:40.071Z,16.84
2023-02-05T08:08:40.676Z,16.86
2023-02-05T08:09:41.336Z,16.90
2023-02-05T08:10:41.927Z,16.81
2023-02-05T08:11:42.522Z,16.91
2023-02-05T08:12:43.115Z,16.90
2023-02-05T08:13:43.719Z,16.90
2023-02-05T08:14:44.810Z,16.91
2023-02-05T08:15:45.519Z,16.93
2023-02-05T08:16:46.207Z,16.91
2023-02-05T08:17:46.849Z,16.84
2023-02-05T08:18:47.509Z,16.89
2023-02-05T08:19:48.112Z,16.91
2023-02-05T08:20:48.705Z,16.87
2023-02-05T08:21:49.299Z,16.89
2023-02-05T08:23:35.395Z,16.90
2023-02-05T08:24:35.999Z,16.90
2023-02-05T08:25:57.468Z,16.94
2023-02-05T08:26:58.070Z,16.84
2023-02-05T08:28:12.461Z,16.90
